Time;durP1;ratioP1;P1;durP2;ratioP2;P2;SDS_P1;SDS_P2;PMS_P1;PMS_P2;Temp;Humidity;BMP_temperature;BMP_pressure;BME280_temperature;BME280_humidity;BME280_pressure;Samples;Min_cycle;Max_cycle;Signal;HPM_P1;HPM_P2
2022/06/27 00:01:10;;;;;;;9.27;5.63;;;18.60;99.90;;;;;;5110510;28;20042;-67
2022/06/27 00:03:36;;;;;;;8.15;5.53;;;18.60;99.90;;;;;;5110242;28;20043;-67
2022/06/27 00:06:01;;;;;;;7.88;5.30;;;18.50;99.90;;;;;;5110917;28;20031;-68
2022/06/27 00:08:27;;;;;;;7.10;5.32;;;18.50;99.90;;;;;;5110803;28;20028;-68
2022/06/27 00:10:52;;;;;;;11.38;5.68;;;18.50;99.90;;;;;;5111820;28;20036;-68
2022/06/27 00:13:18;;;;;;;7.20;4.95;;;18.40;99.90;;;;;;5110037;28;20132;-68
2022/06/27 00:15:44;;;;;;;7.55;5.57;;;18.40;99.90;;;;;;5111670;28;20046;-68
2022/06/27 00:18:09;;;;;;;7.80;6.03;;;18.40;99.90;;;;;;5111713;28;20475;-68
2022/06/27 00:20:35;;;;;;;7.13;5.35;;;18.40;99.90;;;;;;5111561;28;20400;-67
2022/06/27 00:23:01;;;;;;;9.93;5.60;;;18.40;99.90;;;;;;5110958;27;20495;-67
2022/06/27 00:25:26;;;;;;;8.63;5.43;;;18.30;99.90;;;;;;5110285;28;20031;-67
2022/06/27 00:27:52;;;;;;;9.88;5.70;;;18.30;99.90;;;;;;5110134;28;20075;-68
2022/06/27 00:30:17;;;;;;;12.02;6.07;;;18.30;99.90;;;;;;5111100;28;20043;-67
2022/06/27 00:32:43;;;;;;;8.35;4.70;;;18.30;99.90;;;;;;5109617;28;20126;-68
2022/06/27 00:35:10;;;;;;;10.65;6.10;;;18.30;99.90;;;;;;5109917;28;20485;-68
2022/06/27 00:37:35;;;;;;;10.63;6.13;;;18.40;99.90;;;;;;5111295;28;20126;-68
2022/06/27 00:40:01;;;;;;;6.95;5.30;;;18.40;99.90;;;;;;5109913;28;20090;-67
2022/06/27 00:42:27;;;;;;;8.57;6.25;;;18.40;99.90;;;;;;5110887;28;20078;-68
2022/06/27 00:44:52;;;;;;;10.88;5.70;;;18.40;99.90;;;;;;5111258;28;20531;-67
2022/06/27 00:47:18;;;;;;;7.63;6.00;;;18.40;99.90;;;;;;5111088;28;20047;-67
2022/06/27 00:49:44;;;;;;;9.20;5.90;;;18.40;99.90;;;;;;5109728;28;20035;-67
2022/06/27 00:52:13;;;;;;;9.77;5.53;;;18.40;99.90;;;;;;5109656;28;20083;-67
2022/06/27 00:54:41;;;;;;;7.47;5.72;;;18.40;99.90;;;;;;5109454;28;20043;-67
2022/06/27 00:57:07;;;;;;;8.23;6.68;;;18.40;99.90;;;;;;5111227;28;20036;-67
2022/06/27 00:59:34;;;;;;;7.30;6.10;;;18.40;99.90;;;;;;5109593;28;20058;-67
2022/06/27 01:02:01;;;;;;;8.90;6.40;;;18.40;99.90;;;;;;5110856;28;20119;-67
2022/06/27 01:04:28;;;;;;;9.77;6.70;;;18.40;99.90;;;;;;5109085;28;20036;-67
2022/06/27 01:06:54;;;;;;;7.97;6.45;;;18.40;99.90;;;;;;5109581;28;20063;-67
2022/06/27 01:09:23;;;;;;;9.38;6.57;;;18.30;99.90;;;;;;5109706;28;20166;-67
2022/06/27 01:11:49;;;;;;;9.57;6.38;;;18.30;99.90;;;;;;5109701;28;20103;-68
2022/06/27 01:14:15;;;;;;;9.90;6.90;;;18.30;99.90;;;;;;5092350;28;20173;-67
2022/06/27 01:16:41;;;;;;;15.70;6.68;;;18.40;99.90;;;;;;5110560;28;20499;-67
2022/06/27 01:19:11;;;;;;;9.55;6.22;;;18.40;99.90;;;;;;5109630;28;20063;-68
2022/06/27 01:21:44;;;;;;;11.05;6.03;;;18.30;99.90;;;;;;5109115;28;20608;-68
2022/06/27 01:24:10;;;;;;;8.45;6.43;;;18.30;99.90;;;;;;5109170;28;20117;-68
2022/06/27 01:26:36;;;;;;;10.32;6.50;;;18.30;99.90;;;;;;5109497;28;20032;-67
2022/06/27 01:29:02;;;;;;;9.07;6.68;;;18.40;99.90;;;;;;5110737;28;20036;-68
2022/06/27 01:31:27;;;;;;;10.13;6.97;;;18.40;99.90;;;;;;5110569;28;20043;-68
2022/06/27 01:33:53;;;;;;;7.90;6.25;;;18.40;99.90;;;;;;5110172;28;20049;-68
2022/06/27 01:39:03;;;;;;;8.82;6.63;;;18.30;99.90;;;;;;5109130;28;20498;-68
2022/06/27 01:41:29;;;;;;;8.23;6.15;;;18.30;99.90;;;;;;5092074;28;20039;-68
2022/06/27 01:43:55;;;;;;;8.00;6.35;;;18.30;99.90;;;;;;5110254;28;20036;-69
2022/06/27 01:46:20;;;;;;;11.18;6.70;;;18.30;99.90;;;;;;5092141;28;20036;-68
2022/06/27 01:48:46;;;;;;;14.93;7.65;;;18.30;99.90;;;;;;5110559;28;20043;-68
2022/06/27 01:51:12;;;;;;;10.52;7.55;;;18.30;99.90;;;;;;5109009;28;20115;-68
2022/06/27 01:53:38;;;;;;;9.40;7.32;;;18.30;99.90;;;;;;5108149;28;20039;-68
2022/06/27 01:56:04;;;;;;;11.68;7.40;;;18.20;99.90;;;;;;5110534;28;20046;-68
2022/06/27 01:58:30;;;;;;;13.65;7.15;;;18.20;99.90;;;;;;5109021;28;20058;-68
2022/06/27 02:00:57;;;;;;;11.80;7.13;;;18.20;99.90;;;;;;5109017;28;20118;-69
2022/06/27 02:03:23;;;;;;;7.60;6.80;;;18.10;99.90;;;;;;5108490;28;20043;-68
2022/06/27 02:05:52;;;;;;;11.38;6.95;;;18.10;99.90;;;;;;5108896;28;20527;-67
2022/06/27 02:08:22;;;;;;;11.45;7.30;;;18.10;99.90;;;;;;5110109;28;20118;-68
2022/06/27 02:10:48;;;;;;;8.52;6.45;;;18.00;99.90;;;;;;5110103;28;20568;-68
2022/06/27 02:13:14;;;;;;;11.90;7.80;;;17.90;99.90;;;;;;5108429;28;20136;-68
2022/06/27 02:16:06;;;;;;;12.63;7.68;;;17.90;99.90;;;;;;5108873;28;20531;-68
2022/06/27 02:18:33;;;;;;;9.57;6.97;;;17.80;99.90;;;;;;5108700;28;20047;-69
2022/06/27 02:21:00;;;;;;;11.30;7.35;;;17.90;99.90;;;;;;5110066;28;20508;-68
2022/06/27 02:23:26;;;;;;;12.38;7.35;;;18.00;99.90;;;;;;5109769;28;20054;-68
2022/06/27 02:25:53;;;;;;;8.50;7.40;;;18.10;99.90;;;;;;5108754;28;20047;-68
2022/06/27 02:28:19;;;;;;;9.00;7.63;;;18.10;99.90;;;;;;5110147;28;20085;-69
2022/06/27 02:30:45;;;;;;;9.68;7.18;;;18.00;99.90;;;;;;5113575;28;20051;-68
2022/06/27 02:33:11;;;;;;;11.15;7.38;;;18.00;99.90;;;;;;5111946;28;20172;-69
2022/06/27 02:35:39;;;;;;;10.60;6.93;;;18.00;99.90;;;;;;5114012;28;20044;-68
2022/06/27 02:38:10;;;;;;;10.07;6.57;;;18.00;99.90;;;;;;5095656;28;20396;-68
2022/06/27 02:40:37;;;;;;;9.52;6.97;;;17.90;99.90;;;;;;5112320;28;20120;-68
2022/06/27 02:43:05;;;;;;;12.02;7.00;;;17.80;99.90;;;;;;5113339;28;20041;-68
2022/06/27 02:45:32;;;;;;;10.57;6.57;;;17.80;99.90;;;;;;5113432;28;20437;-68
2022/06/27 02:47:58;;;;;;;14.80;6.85;;;17.70;99.90;;;;;;5112143;28;20051;-68
2022/06/27 02:50:29;;;;;;;16.25;6.95;;;17.70;99.90;;;;;;5112018;28;20091;-69
2022/06/27 02:52:58;;;;;;;14.95;7.15;;;17.70;99.90;;;;;;5111812;28;20048;-70
2022/06/27 02:55:27;;;;;;;11.73;6.82;;;17.70;99.90;;;;;;5111661;28;20079;-70
2022/06/27 02:58:05;;;;;;;14.30;7.47;;;17.60;99.90;;;;;;5111976;28;20118;-69
2022/06/27 03:00:32;;;;;;;10.65;6.97;;;17.50;99.90;;;;;;5112112;28;20395;-69
2022/06/27 03:02:59;;;;;;;8.50;7.47;;;17.30;99.90;;;;;;5094542;28;20466;-69
2022/06/27 03:05:25;;;;;;;13.85;8.93;;;17.30;99.90;;;;;;5111637;28;20042;-69
2022/06/27 03:07:51;;;;;;;15.05;9.70;;;17.30;99.90;;;;;;5112884;27;20032;-70
2022/06/27 03:10:16;;;;;;;13.27;9.85;;;17.30;99.90;;;;;;5112769;28;20425;-70
2022/06/27 03:12:42;;;;;;;13.18;8.52;;;17.20;99.90;;;;;;5111554;28;20058;-70
2022/06/27 03:15:08;;;;;;;11.60;8.85;;;17.20;99.90;;;;;;5112993;28;20111;-70
2022/06/27 03:17:35;;;;;;;13.50;8.32;;;17.20;99.90;;;;;;5111777;28;20515;-70
2022/06/27 03:20:00;;;;;;;11.70;8.98;;;17.20;99.90;;;;;;5112799;28;20611;-70
2022/06/27 03:22:26;;;;;;;11.48;8.82;;;17.30;99.90;;;;;;5110888;28;20039;-70
2022/06/27 03:24:51;;;;;;;11.85;8.48;;;17.20;99.90;;;;;;5111264;28;20076;-70
2022/06/27 03:27:17;;;;;;;10.18;8.88;;;17.20;99.90;;;;;;5111524;28;20084;-70
2022/06/27 03:29:43;;;;;;;9.93;7.82;;;17.20;99.90;;;;;;5111306;28;20042;-70
2022/06/27 03:32:09;;;;;;;9.57;6.88;;;17.20;99.90;;;;;;5112606;28;20123;-70
2022/06/27 03:34:34;;;;;;;8.60;6.53;;;17.10;99.90;;;;;;5110890;28;20059;-71
2022/06/27 03:37:00;;;;;;;8.07;6.53;;;17.10;99.90;;;;;;5094072;28;20048;-70
2022/06/27 03:39:26;;;;;;;10.57;6.20;;;17.00;99.90;;;;;;5111185;28;20036;-70
2022/06/27 03:41:51;;;;;;;7.00;5.97;;;17.10;99.90;;;;;;5111100;28;20116;-70
2022/06/27 03:44:17;;;;;;;8.95;6.53;;;17.10;99.90;;;;;;5110586;28;20032;-70
2022/06/27 03:46:43;;;;;;;8.15;6.57;;;17.10;99.90;;;;;;5110750;28;20040;-70
2022/06/27 03:51:53;;;;;;;11.52;5.75;;;17.00;99.90;;;;;;5110669;28;20047;-70
2022/06/27 03:54:19;;;;;;;8.88;6.20;;;17.00;99.90;;;;;;5112002;28;20525;-69
2022/06/27 03:56:45;;;;;;;10.73;6.03;;;17.00;99.90;;;;;;5110366;28;20047;-70
2022/06/27 03:59:11;;;;;;;7.88;5.40;;;17.10;99.90;;;;;;5109007;28;20505;-69
2022/06/27 04:01:36;;;;;;;9.23;5.90;;;17.10;99.90;;;;;;5107992;28;20457;-70
2022/06/27 04:04:02;;;;;;;8.48;5.28;;;17.20;99.90;;;;;;5107778;28;20122;-69
2022/06/27 04:06:28;;;;;;;7.60;5.03;;;17.20;99.90;;;;;;5107831;28;20031;-70
2022/06/27 04:08:54;;;;;;;8.48;5.35;;;17.20;99.90;;;;;;5107569;28;20512;-69
2022/06/27 04:11:20;;;;;;;6.18;5.57;;;17.20;99.90;;;;;;5107877;28;20412;-70
2022/06/27 04:13:46;;;;;;;8.40;5.82;;;17.10;99.90;;;;;;5109905;28;20118;-70
2022/06/27 04:16:11;;;;;;;9.02;6.63;;;17.10;99.90;;;;;;5109750;28;20039;-69
2022/06/27 04:18:37;;;;;;;7.75;6.60;;;17.00;99.90;;;;;;5109186;28;20036;-70
2022/06/27 04:21:03;;;;;;;8.13;6.60;;;17.00;99.90;;;;;;5107678;28;20035;-70
2022/06/27 04:23:29;;;;;;;10.23;6.68;;;17.00;99.90;;;;;;5109301;28;20055;-70
2022/06/27 04:25:54;;;;;;;7.82;6.63;;;17.00;99.90;;;;;;5109749;28;20050;-70
2022/06/27 04:28:20;;;;;;;8.77;6.65;;;17.00;99.90;;;;;;5108387;28;20043;-70
2022/06/27 04:30:47;;;;;;;6.88;5.78;;;17.00;99.90;;;;;;5110122;28;20031;-70
2022/06/27 04:33:13;;;;;;;6.38;4.75;;;17.00;99.90;;;;;;5109671;28;20556;-70
2022/06/27 04:35:40;;;;;;;8.27;4.97;;;16.90;99.90;;;;;;5109773;28;20043;-69
2022/06/27 04:38:06;;;;;;;6.70;4.65;;;17.00;99.90;;;;;;5092957;28;20043;-69
2022/06/27 04:40:32;;;;;;;7.28;4.57;;;16.90;99.90;;;;;;5111158;28;20039;-70
2022/06/27 04:42:59;;;;;;;7.90;4.30;;;16.90;99.90;;;;;;5109353;28;20191;-70
2022/06/27 04:45:27;;;;;;;6.18;4.15;;;16.90;99.90;;;;;;5109623;28;20039;-69
2022/06/27 04:47:53;;;;;;;7.80;4.28;;;16.80;99.90;;;;;;5109369;28;20476;-70
2022/06/27 04:50:21;;;;;;;5.72;4.75;;;16.80;99.90;;;;;;5092425;28;20130;-70
2022/06/27 04:52:48;;;;;;;5.60;4.53;;;16.90;99.90;;;;;;5092335;28;20047;-70
2022/06/27 04:55:15;;;;;;;4.50;4.03;;;16.90;99.90;;;;;;5108563;28;20126;-70
2022/06/27 04:57:43;;;;;;;4.95;3.95;;;16.80;99.90;;;;;;5092783;28;20525;-70
2022/06/27 05:00:11;;;;;;;5.40;4.90;;;16.80;99.90;;;;;;5109777;28;20039;-69
2022/06/27 05:02:37;;;;;;;7.65;4.50;;;16.90;99.90;;;;;;5109240;28;20093;-70
2022/06/27 05:05:04;;;;;;;8.05;4.60;;;16.90;99.90;;;;;;5092802;28;20043;-70
2022/06/27 05:07:30;;;;;;;4.78;3.95;;;16.80;99.90;;;;;;5109704;28;20837;-70
2022/06/27 05:09:56;;;;;;;5.30;3.97;;;16.80;99.90;;;;;;5092740;28;20048;-70
2022/06/27 05:12:24;;;;;;;5.60;4.50;;;16.80;99.90;;;;;;5092173;28;20035;-69
2022/06/27 05:14:50;;;;;;;4.50;4.10;;;16.70;99.90;;;;;;5109437;28;20083;-69
2022/06/27 05:17:16;;;;;;;6.10;4.55;;;16.80;99.90;;;;;;5109454;28;20507;-69
2022/06/27 05:19:41;;;;;;;6.25;4.63;;;16.80;99.90;;;;;;5110897;28;20070;-70
2022/06/27 05:22:08;;;;;;;5.38;4.43;;;16.90;99.90;;;;;;5110542;28;20039;-69
2022/06/27 05:24:34;;;;;;;6.38;5.22;;;16.90;99.90;;;;;;5110315;28;20459;-69
2022/06/27 05:27:00;;;;;;;5.75;4.85;;;16.90;99.90;;;;;;5109136;28;20050;-69
2022/06/27 05:29:25;;;;;;;7.18;5.07;;;16.90;99.90;;;;;;5109310;28;20031;-69
2022/06/27 05:31:51;;;;;;;5.47;4.68;;;17.00;99.90;;;;;;5109299;28;20539;-69
2022/06/27 05:34:17;;;;;;;4.93;4.45;;;17.00;99.90;;;;;;5108864;28;20055;-69
2022/06/27 05:36:42;;;;;;;6.03;3.85;;;17.00;99.90;;;;;;5110730;28;20432;-69
2022/06/27 05:39:08;;;;;;;8.32;4.43;;;17.00;99.90;;;;;;5110408;28;20116;-68
2022/06/27 05:41:34;;;;;;;6.75;3.78;;;17.10;99.90;;;;;;5110422;28;20040;-69
2022/06/27 05:44:01;;;;;;;3.90;3.50;;;17.00;99.90;;;;;;5108558;28;20071;-69
2022/06/27 05:46:27;;;;;;;6.43;4.28;;;17.00;99.90;;;;;;5109069;28;20049;-69
2022/06/27 05:48:53;;;;;;;4.55;3.90;;;17.10;99.90;;;;;;5109322;28;20042;-70
2022/06/27 05:51:20;;;;;;;4.78;3.55;;;17.10;99.90;;;;;;5109530;28;20437;-69
2022/06/27 05:53:49;;;;;;;6.05;3.90;;;17.10;99.90;;;;;;5109051;28;20142;-69
2022/06/27 05:56:15;;;;;;;3.90;3.38;;;17.20;99.90;;;;;;5110174;28;20032;-68
2022/06/27 05:58:42;;;;;;;4.63;3.17;;;17.20;99.90;;;;;;5109301;28;20031;-70
2022/06/27 06:01:09;;;;;;;4.43;3.15;;;17.20;99.90;;;;;;5109306;28;20047;-69
2022/06/27 06:03:36;;;;;;;5.68;3.30;;;17.20;99.90;;;;;;5108691;28;20054;-69
2022/06/27 06:06:02;;;;;;;4.05;3.33;;;17.20;99.90;;;;;;5113002;28;20499;-69
2022/06/27 06:08:29;;;;;;;4.05;3.20;;;17.30;99.90;;;;;;5112875;28;20039;-70
2022/06/27 06:10:55;;;;;;;3.95;3.25;;;17.30;99.90;;;;;;5095969;28;20524;-69
2022/06/27 06:13:22;;;;;;;4.43;3.35;;;17.30;99.90;;;;;;5112507;28;20051;-69
2022/06/27 06:15:47;;;;;;;5.38;3.33;;;17.30;99.90;;;;;;5114139;28;20107;-69
2022/06/27 06:18:13;;;;;;;3.70;3.13;;;17.30;99.90;;;;;;5114110;28;20470;-69
2022/06/27 06:20:39;;;;;;;4.10;3.53;;;17.30;99.90;;;;;;5112391;28;20043;-71
2022/06/27 06:23:05;;;;;;;5.13;3.80;;;17.20;99.90;;;;;;5112397;28;20079;-68
2022/06/27 06:25:31;;;;;;;7.00;3.38;;;17.20;99.90;;;;;;5114062;28;20067;-69
2022/06/27 06:28:03;;;;;;;4.55;3.65;;;17.20;99.90;;;;;;5113502;28;20109;-69
2022/06/27 06:30:30;;;;;;;5.85;3.30;;;17.30;99.90;;;;;;5113894;28;20047;-69
2022/06/27 06:33:01;;;;;;;4.30;3.90;;;17.20;99.90;;;;;;5112277;28;20357;-70
2022/06/27 06:35:26;;;;;;;6.80;4.20;;;17.20;99.90;;;;;;5112485;28;20657;-68
2022/06/27 06:37:52;;;;;;;5.55;3.90;;;17.30;99.90;;;;;;5113629;28;20097;-69
2022/06/27 06:40:18;;;;;;;5.18;4.20;;;17.20;99.90;;;;;;5113891;28;20126;-68
2022/06/27 06:42:44;;;;;;;5.50;4.38;;;17.20;99.90;;;;;;5111933;28;20352;-69
2022/06/27 06:45:10;;;;;;;6.38;4.15;;;17.30;99.90;;;;;;5113603;28;20409;-69
2022/06/27 06:47:44;;;;;;;4.55;4.07;;;17.30;99.90;;;;;;5112406;28;20443;-69
2022/06/27 06:50:12;;;;;;;9.65;4.78;;;17.30;99.90;;;;;;5112332;28;20035;-68
2022/06/27 06:52:41;;;;;;;5.68;4.30;;;17.50;99.90;;;;;;5112126;28;20435;-69
2022/06/27 06:55:11;;;;;;;4.55;3.85;;;17.50;99.90;;;;;;5102919;27;20039;-68
2022/06/27 06:57:38;;;;;;;8.43;4.68;;;17.60;99.90;;;;;;5099558;28;20036;-69
2022/06/27 07:00:05;;;;;;;4.47;4.05;;;17.50;99.90;;;;;;5092954;28;20121;-69
2022/06/27 07:02:31;;;;;;;5.88;4.35;;;17.50;99.90;;;;;;5091158;28;20446;-68
2022/06/27 07:04:58;;;;;;;6.90;4.40;;;17.50;99.90;;;;;;5091338;28;20059;-68
2022/06/27 07:07:25;;;;;;;4.88;4.38;;;17.60;99.90;;;;;;5091757;28;20441;-68
2022/06/27 07:09:51;;;;;;;6.03;4.60;;;17.60;99.90;;;;;;5092841;28;20447;-69
2022/06/27 07:12:17;;;;;;;5.03;4.10;;;17.60;99.90;;;;;;5091097;28;20119;-69
2022/06/27 07:14:45;;;;;;;4.93;4.40;;;17.60;99.90;;;;;;5092216;28;20427;-69
2022/06/27 07:17:11;;;;;;;5.05;4.43;;;17.50;99.90;;;;;;5092689;28;20043;-69
2022/06/27 07:19:38;;;;;;;5.55;4.13;;;17.60;99.90;;;;;;5091075;28;20039;-68
2022/06/27 07:22:06;;;;;;;6.57;4.78;;;17.50;99.90;;;;;;5090989;28;20495;-68
2022/06/27 07:24:32;;;;;;;5.97;5.20;;;17.50;99.90;;;;;;5092006;28;20093;-68
2022/06/27 07:26:59;;;;;;;4.30;3.90;;;17.50;99.90;;;;;;5091375;28;20043;-68
2022/06/27 07:29:27;;;;;;;7.10;4.43;;;17.60;99.90;;;;;;5092338;28;20040;-68
2022/06/27 07:31:53;;;;;;;5.70;4.63;;;17.60;99.90;;;;;;5091122;28;20066;-68
2022/06/27 07:34:21;;;;;;;6.25;4.97;;;17.60;99.90;;;;;;5091822;28;20440;-68
2022/06/27 07:36:48;;;;;;;8.30;4.65;;;17.60;99.90;;;;;;5092318;28;20455;-68
2022/06/27 07:39:14;;;;;;;5.10;4.50;;;17.60;99.90;;;;;;5098104;28;20039;-69
2022/06/27 07:41:40;;;;;;;6.13;4.30;;;17.60;99.90;;;;;;5081977;28;20040;-69
2022/06/27 07:44:06;;;;;;;5.82;4.47;;;17.60;99.90;;;;;;5079944;28;20073;-69
2022/06/27 07:46:34;;;;;;;4.57;4.03;;;17.60;99.90;;;;;;5081786;28;20084;-69
2022/06/27 07:49:00;;;;;;;5.65;4.47;;;17.60;99.90;;;;;;5080933;28;20143;-67
2022/06/27 07:51:26;;;;;;;7.07;4.75;;;17.60;99.90;;;;;;5080316;28;20040;-67
2022/06/27 07:53:52;;;;;;;5.13;4.53;;;17.70;99.90;;;;;;5079990;28;20028;-68
2022/06/27 07:56:20;;;;;;;6.43;4.32;;;17.60;99.90;;;;;;5090922;28;20031;-68
2022/06/27 07:58:48;;;;;;;6.68;4.45;;;17.70;99.90;;;;;;5100052;28;20372;-67
2022/06/27 08:01:15;;;;;;;7.38;4.88;;;17.70;99.90;;;;;;5102397;28;20484;-68
2022/06/27 08:03:44;;;;;;;5.55;4.45;;;17.80;99.90;;;;;;5096130;28;20070;-68
2022/06/27 08:06:14;;;;;;;6.18;3.90;;;17.70;99.90;;;;;;5101340;28;20054;-70
2022/06/27 08:08:52;;;;;;;6.32;4.47;;;17.80;99.90;;;;;;5097721;28;20035;-69
2022/06/27 08:11:23;;;;;;;5.88;4.35;;;17.80;99.90;;;;;;5098158;28;20050;-68
2022/06/27 08:13:50;;;;;;;6.15;5.00;;;17.80;99.90;;;;;;5098855;28;20062;-68
2022/06/27 08:16:18;;;;;;;6.85;4.22;;;17.80;99.90;;;;;;5100300;28;20036;-69
2022/06/27 08:18:46;;;;;;;5.57;3.72;;;17.80;99.90;;;;;;5099375;28;20472;-68
2022/06/27 08:21:14;;;;;;;6.63;3.72;;;17.90;99.90;;;;;;5111416;28;20403;-70
2022/06/27 08:23:40;;;;;;;4.45;3.95;;;17.90;99.90;;;;;;5111250;28;20115;-69
2022/06/27 08:26:07;;;;;;;5.22;3.72;;;17.90;99.90;;;;;;5111591;28;20036;-69
2022/06/27 08:28:37;;;;;;;4.82;3.95;;;17.90;99.90;;;;;;5106227;28;20028;-69
2022/06/27 08:31:05;;;;;;;5.55;4.00;;;17.90;99.90;;;;;;5072986;28;20184;-70
2022/06/27 08:33:31;;;;;;;5.55;4.43;;;18.00;99.90;;;;;;5089049;28;20043;-70
2022/06/27 08:35:58;;;;;;;4.25;3.83;;;18.00;99.90;;;;;;5089218;28;20044;-71
2022/06/27 08:38:24;;;;;;;4.30;3.88;;;17.90;99.90;;;;;;5089431;28;20071;-71
2022/06/27 08:40:53;;;;;;;6.63;3.70;;;18.00;99.90;;;;;;5090803;28;20663;-70
2022/06/27 08:43:18;;;;;;;4.10;3.70;;;18.10;99.90;;;;;;5088783;28;20040;-70
2022/06/27 08:45:49;;;;;;;5.40;3.50;;;18.10;99.90;;;;;;5089435;28;20043;-71
2022/06/27 08:48:15;;;;;;;3.90;3.40;;;18.10;99.90;;;;;;5089381;28;20155;-70
2022/06/27 08:50:42;;;;;;;3.35;3.05;;;18.20;99.90;;;;;;5089178;28;20036;-68
2022/06/27 08:53:12;;;;;;;3.85;3.10;;;18.10;99.90;;;;;;5090289;28;20066;-68
2022/06/27 08:55:42;;;;;;;4.35;2.78;;;18.10;99.90;;;;;;5089328;28;20032;-68
2022/06/27 08:58:10;;;;;;;3.38;3.08;;;18.20;99.90;;;;;;5090785;28;20043;-69
2022/06/27 09:00:40;;;;;;;6.25;3.65;;;18.20;99.90;;;;;;5089287;28;20118;-68
2022/06/27 09:03:07;;;;;;;7.45;3.65;;;18.20;99.90;;;;;;5088672;28;20050;-68
2022/06/27 09:05:34;;;;;;;5.47;3.30;;;18.30;99.90;;;;;;5089356;28;20042;-68
2022/06/27 09:08:05;;;;;;;3.65;3.10;;;18.30;99.90;;;;;;5090500;28;20123;-69
2022/06/27 09:10:42;;;;;;;3.85;3.20;;;18.30;99.90;;;;;;5089128;28;20152;-66
2022/06/27 09:13:16;;;;;;;3.45;3.10;;;18.30;99.90;;;;;;5090011;28;20039;-67
2022/06/27 09:15:45;;;;;;;3.85;3.20;;;18.30;99.90;;;;;;5089150;28;20175;-67
2022/06/27 09:18:11;;;;;;;4.43;3.58;;;18.30;99.90;;;;;;5090375;28;20040;-67
2022/06/27 09:20:52;;;;;;;6.10;3.53;;;18.30;99.90;;;;;;5090242;28;20555;-67
2022/06/27 09:23:50;;;;;;;5.32;3.67;;;18.30;99.90;;;;;;5088415;28;20055;-68
2022/06/27 09:26:26;;;;;;;4.68;3.22;;;18.20;99.90;;;;;;5088823;28;20040;-67
2022/06/27 09:29:08;;;;;;;3.78;3.10;;;18.20;99.90;;;;;;5089751;28;20032;-67
2022/06/27 09:31:48;;;;;;;5.00;3.25;;;18.20;99.90;;;;;;5089226;28;20036;-67
2022/06/27 09:34:20;;;;;;;5.53;3.50;;;18.20;99.90;;;;;;5087993;28;20044;-68
2022/06/27 09:36:51;;;;;;;4.68;3.83;;;18.20;99.90;;;;;;5089053;28;20403;-68
2022/06/27 09:39:20;;;;;;;5.05;3.55;;;18.20;99.90;;;;;;5100028;28;20535;-69
2022/06/27 09:42:01;;;;;;;5.32;4.38;;;18.20;99.90;;;;;;5113175;28;20051;-70
2022/06/27 09:44:29;;;;;;;4.70;4.03;;;18.30;99.90;;;;;;5114327;28;20096;-70
2022/06/27 09:47:03;;;;;;;4.95;4.18;;;18.30;99.90;;;;;;5113427;28;20602;-70
2022/06/27 09:49:36;;;;;;;4.70;3.88;;;18.30;99.90;;;;;;5114578;28;20039;-71
2022/06/27 09:52:10;;;;;;;4.32;3.67;;;18.30;99.90;;;;;;5113666;28;20036;-71
2022/06/27 09:54:40;;;;;;;6.80;3.83;;;18.40;99.90;;;;;;5113087;28;20051;-71
2022/06/27 09:57:07;;;;;;;4.65;3.70;;;18.40;99.90;;;;;;5113236;28;20562;-72
2022/06/27 09:59:34;;;;;;;5.10;4.25;;;18.30;99.90;;;;;;5113033;28;20049;-71
2022/06/27 10:02:00;;;;;;;3.97;3.58;;;18.30;99.90;;;;;;5112831;28;20116;-72
2022/06/27 10:04:28;;;;;;;4.30;3.65;;;18.30;99.90;;;;;;5095982;28;20040;-72
2022/06/27 10:06:55;;;;;;;4.07;3.60;;;18.40;99.90;;;;;;5112994;28;20035;-71
2022/06/27 10:09:24;;;;;;;4.88;3.70;;;18.40;99.90;;;;;;5096168;28;20053;-71
2022/06/27 10:12:31;;;;;;;4.43;3.53;;;18.40;99.90;;;;;;5112922;28;20047;-72
2022/06/27 10:15:14;;;;;;;4.20;3.55;;;18.50;99.90;;;;;;5112819;28;20042;-72
2022/06/27 10:17:46;;;;;;;4.40;3.50;;;18.50;99.90;;;;;;5112660;28;20460;-70
2022/06/27 10:20:21;;;;;;;4.78;3.45;;;18.50;99.90;;;;;;5113061;28;20112;-71
2022/06/27 10:23:08;;;;;;;4.63;3.20;;;18.60;99.90;;;;;;5112196;28;20582;-71
2022/06/27 10:25:43;;;;;;;5.47;3.60;;;18.70;99.90;;;;;;5106356;27;20075;-70
2022/06/27 10:28:14;;;;;;;4.70;3.05;;;18.60;99.90;;;;;;5113914;28;20043;-71
2022/06/27 10:30:59;;;;;;;4.57;3.00;;;18.60;99.90;;;;;;5112978;28;20062;-70
2022/06/27 10:33:28;;;;;;;4.82;3.30;;;18.60;99.90;;;;;;5112253;28;20043;-71
2022/06/27 10:35:57;;;;;;;4.13;3.72;;;18.60;99.90;;;;;;5112909;28;20399;-71
2022/06/27 10:38:25;;;;;;;6.93;3.80;;;18.70;99.90;;;;;;5112339;28;20049;-71
2022/06/27 10:40:52;;;;;;;3.80;3.40;;;18.70;99.90;;;;;;5111988;28;20055;-71
2022/06/27 10:43:36;;;;;;;3.88;3.17;;;18.70;99.90;;;;;;5112032;28;20039;-70
2022/06/27 10:46:11;;;;;;;5.45;3.80;;;18.80;99.90;;;;;;5095237;28;20047;-71
2022/06/27 10:48:41;;;;;;;4.18;3.78;;;18.80;99.90;;;;;;5112393;28;20035;-71
2022/06/27 10:51:27;;;;;;;4.50;3.60;;;18.80;99.90;;;;;;5111837;28;20064;-69
2022/06/27 10:53:59;;;;;;;3.90;3.38;;;18.80;99.90;;;;;;5113428;28;20107;-70
2022/06/27 10:56:35;;;;;;;3.73;3.30;;;18.90;99.90;;;;;;5109956;28;20071;-69
2022/06/27 10:59:05;;;;;;;3.80;3.10;;;18.90;99.90;;;;;;5113446;28;20609;-70
2022/06/27 11:01:32;;;;;;;3.92;3.22;;;19.00;99.90;;;;;;5111532;28;20042;-71
2022/06/27 11:03:59;;;;;;;4.80;3.38;;;19.00;99.90;;;;;;5111039;28;20067;-71
2022/06/27 11:06:25;;;;;;;3.15;2.85;;;19.10;99.90;;;;;;5113311;28;20074;-70
2022/06/27 11:08:53;;;;;;;4.10;3.38;;;19.10;99.90;;;;;;5113185;28;20100;-71
2022/06/27 11:11:25;;;;;;;5.00;3.15;;;19.10;99.90;;;;;;5112401;28;20449;-71
2022/06/27 11:13:53;;;;;;;4.10;3.00;;;19.20;99.90;;;;;;5111410;28;20044;-71
2022/06/27 11:16:21;;;;;;;5.25;2.60;;;19.10;99.90;;;;;;5111883;28;20122;-70
2022/06/27 11:18:51;;;;;;;3.15;2.25;;;19.10;99.90;;;;;;5111607;28;20092;-71
2022/06/27 11:21:21;;;;;;;3.72;3.03;;;19.10;99.90;;;;;;5094480;28;20176;-71
2022/06/27 11:24:01;;;;;;;3.80;2.75;;;19.10;99.90;;;;;;5111009;28;20514;-71
2022/06/27 11:26:29;;;;;;;3.47;2.70;;;19.10;99.90;;;;;;5094583;28;20040;-71
2022/06/27 11:31:57;;;;;;;3.47;3.05;;;19.10;99.90;;;;;;5108666;28;20495;-70
2022/06/27 11:34:24;;;;;;;;;;;19.20;99.90;;;;;;5111541;28;20110;-70
2022/06/27 11:36:54;;;;;;;7.05;3.15;;;19.20;99.90;;;;;;5111133;28;20372;-70
2022/06/27 11:39:28;;;;;;;4.72;3.28;;;19.20;99.90;;;;;;5112676;28;20035;-70
2022/06/27 11:41:58;;;;;;;5.03;3.22;;;19.20;99.90;;;;;;5111087;28;20039;-70
2022/06/27 11:44:25;;;;;;;5.63;3.85;;;19.20;99.90;;;;;;5107681;28;20036;-70
2022/06/27 11:46:53;;;;;;;5.63;2.63;;;19.10;99.90;;;;;;5075680;28;20056;-70
2022/06/27 11:49:29;;;;;;;4.90;3.33;;;19.20;99.90;;;;;;5053698;28;20062;-70
2022/06/27 11:52:13;;;;;;;3.10;2.70;;;19.30;99.90;;;;;;5070723;28;20462;-69
2022/06/27 11:54:51;;;;;;;4.22;3.17;;;19.30;99.90;;;;;;5070175;28;20064;-69
2022/06/27 11:57:32;;;;;;;66.97;5.97;;;19.30;99.90;;;;;;5070253;28;20074;-69
2022/06/27 12:00:00;;;;;;;16.45;3.25;;;19.30;99.90;;;;;;5071537;28;20047;-70
2022/06/27 12:02:36;;;;;;;6.78;2.50;;;19.40;99.90;;;;;;5068750;28;20040;-70
2022/06/27 12:05:07;;;;;;;253.07;12.63;;;19.50;99.90;;;;;;5070105;28;20055;-69
2022/06/27 12:07:52;;;;;;;4.82;2.40;;;19.40;99.90;;;;;;5070533;28;20040;-69
2022/06/27 12:10:39;;;;;;;6.45;2.38;;;19.40;99.90;;;;;;5070190;28;20433;-69
2022/06/27 12:13:07;;;;;;;115.63;8.23;;;19.40;99.90;;;;;;5071250;28;20044;-70
2022/06/27 12:15:34;;;;;;;30.42;3.50;;;19.50;99.90;;;;;;5070006;28;20432;-69
2022/06/27 12:18:01;;;;;;;4.20;2.78;;;19.50;99.90;;;;;;5069858;28;20051;-69
2022/06/27 12:20:29;;;;;;;124.20;7.53;;;19.50;99.90;;;;;;5070847;28;20403;-69
2022/06/27 12:22:54;;;;;;;11.85;3.35;;;19.50;99.90;;;;;;5069179;28;20045;-70
2022/06/27 12:25:21;;;;;;;8.07;3.03;;;19.50;99.90;;;;;;5071131;28;20037;-70
2022/06/27 12:27:47;;;;;;;2.50;2.30;;;19.50;99.90;;;;;;5069724;28;20086;-70
2022/06/27 12:30:13;;;;;;;6.97;2.70;;;19.60;99.90;;;;;;5069664;28;20036;-69
2022/06/27 12:32:40;;;;;;;3.17;2.40;;;19.70;99.90;;;;;;5069284;28;20055;-70
2022/06/27 12:35:06;;;;;;;4.55;2.90;;;19.70;99.90;;;;;;5069807;28;20442;-69
2022/06/27 12:37:39;;;;;;;4.90;2.53;;;19.70;99.90;;;;;;5069601;28;20540;-70
2022/06/27 12:40:05;;;;;;;;;;;19.70;99.90;;;;;;5071327;28;20040;-70
2022/06/27 12:42:31;;;;;;;4.95;2.90;;;19.70;99.90;;;;;;5070396;28;19924;-70
2022/06/27 12:44:57;;;;;;;5.30;2.65;;;19.70;99.90;;;;;;5069619;28;20079;-70
2022/06/27 12:47:23;;;;;;;4.07;2.70;;;19.70;99.90;;;;;;5069492;28;20068;-69
2022/06/27 12:49:48;;;;;;;2.78;2.10;;;19.70;99.90;;;;;;5070599;28;20032;-69
2022/06/27 12:52:15;;;;;;;4.20;2.17;;;19.80;99.90;;;;;;5069111;28;20040;-69
2022/06/27 12:54:41;;;;;;;3.38;2.30;;;19.80;99.90;;;;;;5069118;28;20048;-70
2022/06/27 12:57:07;;;;;;;4.47;2.65;;;19.70;99.90;;;;;;5070604;28;20044;-70
2022/06/27 12:59:33;;;;;;;3.58;2.80;;;19.80;99.90;;;;;;5069088;28;20041;-70